sensor_id;sensor_type;location;lat;lon;timestamp;pressure;altitude;pressure_sealevel;temperature;humidity
64544;BME280;50936;51.660;5.616;2024-03-08T00:00:53;101431.06;;;7.19;68.42
64544;BME280;50936;51.660;5.616;2024-03-08T00:03:40;101427.69;;;7.14;68.46
64544;BME280;50936;51.660;5.616;2024-03-08T00:06:27;101430.50;;;7.12;68.36
64544;BME280;50936;51.660;5.616;2024-03-08T00:09:15;101419.00;;;7.09;68.24
64544;BME280;50936;51.660;5.616;2024-03-08T00:12:02;101428.78;;;7.10;68.03
64544;BME280;50936;51.660;5.616;2024-03-08T00:14:50;101428.00;;;7.08;68.11
64544;BME280;50936;51.660;5.616;2024-03-08T00:17:37;101413.09;;;7.01;67.98
64544;BME280;50936;51.660;5.616;2024-03-08T00:20:25;101411.28;;;7.01;67.86
64544;BME280;50936;51.660;5.616;2024-03-08T00:23:12;101408.81;;;6.97;67.79
64544;BME280;50936;51.660;5.616;2024-03-08T00:25:59;101415.78;;;7.01;67.57
64544;BME280;50936;51.660;5.616;2024-03-08T00:28:48;101404.44;;;6.94;67.56
64544;BME280;50936;51.660;5.616;2024-03-08T00:31:35;101410.63;;;6.96;67.39
64544;BME280;50936;51.660;5.616;2024-03-08T00:34:23;101410.69;;;6.94;67.56
64544;BME280;50936;51.660;5.616;2024-03-08T00:37:10;101407.22;;;6.92;67.45
64544;BME280;50936;51.660;5.616;2024-03-08T00:39:57;101403.69;;;6.90;67.48
64544;BME280;50936;51.660;5.616;2024-03-08T00:42:45;101405.59;;;6.88;67.35
64544;BME280;50936;51.660;5.616;2024-03-08T00:45:33;101404.78;;;6.86;67.33
64544;BME280;50936;51.660;5.616;2024-03-08T00:48:20;101393.25;;;6.84;67.29
64544;BME280;50936;51.660;5.616;2024-03-08T00:51:07;101395.13;;;6.82;67.22
64544;BME280;50936;51.660;5.616;2024-03-08T00:53:55;101383.78;;;6.75;67.09
64544;BME280;50936;51.660;5.616;2024-03-08T00:56:43;101385.41;;;6.80;66.98
64544;BME280;50936;51.660;5.616;2024-03-08T00:59:30;101380.19;;;6.77;66.92
64544;BME280;50936;51.660;5.616;2024-03-08T01:02:21;101374.94;;;6.73;66.77
64544;BME280;50936;51.660;5.616;2024-03-08T01:05:10;101363.63;;;6.67;66.85
64544;BME280;50936;51.660;5.616;2024-03-08T01:07:57;101366.22;;;6.68;66.79
64544;BME280;50936;51.660;5.616;2024-03-08T01:10:44;101372.47;;;6.69;66.90
64544;BME280;50936;51.660;5.616;2024-03-08T01:13:32;101364.47;;;6.67;66.65
64544;BME280;50936;51.660;5.616;2024-03-08T01:16:19;101359.25;;;6.64;66.49
64544;BME280;50936;51.660;5.616;2024-03-08T01:19:08;101353.00;;;6.64;66.61
64544;BME280;50936;51.660;5.616;2024-03-08T01:21:56;101340.81;;;6.57;66.62
64544;BME280;50936;51.660;5.616;2024-03-08T01:24:43;101351.41;;;6.60;66.53
64544;BME280;50936;51.660;5.616;2024-03-08T01:27:31;101342.69;;;6.54;66.47
64544;BME280;50936;51.660;5.616;2024-03-08T01:30:18;101349.78;;;6.55;66.35
64544;BME280;50936;51.660;5.616;2024-03-08T01:33:05;101344.41;;;6.55;66.39
64544;BME280;50936;51.660;5.616;2024-03-08T01:35:53;101340.94;;;6.53;66.18
64544;BME280;50936;51.660;5.616;2024-03-08T01:38:42;101339.34;;;6.49;66.20
64544;BME280;50936;51.660;5.616;2024-03-08T01:41:30;101332.50;;;6.42;66.39
64544;BME280;50936;51.660;5.616;2024-03-08T01:44:17;101320.09;;;6.40;66.50
64544;BME280;50936;51.660;5.616;2024-03-08T01:47:05;101332.38;;;6.45;66.26
64544;BME280;50936;51.660;5.616;2024-03-08T01:49:52;101329.00;;;6.40;66.15
64544;BME280;50936;51.660;5.616;2024-03-08T01:52:40;101320.28;;;6.35;66.22
64544;BME280;50936;51.660;5.616;2024-03-08T01:55:27;101331.81;;;6.37;66.25
64544;BME280;50936;51.660;5.616;2024-03-08T01:58:15;101323.94;;;6.34;66.36
64544;BME280;50936;51.660;5.616;2024-03-08T02:01:03;101323.19;;;6.30;66.36
64544;BME280;50936;51.660;5.616;2024-03-08T02:03:51;101314.53;;;6.24;66.34
64544;BME280;50936;51.660;5.616;2024-03-08T02:06:38;101319.88;;;6.24;66.40
64544;BME280;50936;51.660;5.616;2024-03-08T02:09:26;101314.59;;;6.22;66.49
64544;BME280;50936;51.660;5.616;2024-03-08T02:12:14;101321.84;;;6.20;66.59
64544;BME280;50936;51.660;5.616;2024-03-08T02:15:02;101302.31;;;6.16;66.54
64544;BME280;50936;51.660;5.616;2024-03-08T02:17:49;101306.94;;;6.13;66.23
64544;BME280;50936;51.660;5.616;2024-03-08T02:20:36;101297.97;;;6.14;66.47
64544;BME280;50936;51.660;5.616;2024-03-08T02:23:24;101303.53;;;6.09;66.59
64544;BME280;50936;51.660;5.616;2024-03-08T02:26:12;101300.03;;;6.07;66.54
64544;BME280;50936;51.660;5.616;2024-03-08T02:29:00;101301.91;;;6.05;66.48
64544;BME280;50936;51.660;5.616;2024-03-08T02:31:52;101285.94;;;6.02;66.60
64544;BME280;50936;51.660;5.616;2024-03-08T02:34:39;101282.47;;;6.00;66.49
64544;BME280;50936;51.660;5.616;2024-03-08T02:37:27;101279.91;;;5.97;66.53
64544;BME280;50936;51.660;5.616;2024-03-08T02:40:15;101278.19;;;5.96;66.52
64544;BME280;50936;51.660;5.616;2024-03-08T02:43:03;101282.84;;;5.91;66.84
64544;BME280;50936;51.660;5.616;2024-03-08T02:45:51;101281.13;;;5.90;66.59
64544;BME280;50936;51.660;5.616;2024-03-08T02:48:41;101268.75;;;5.86;66.78
64544;BME280;50936;51.660;5.616;2024-03-08T02:51:29;101267.88;;;5.85;66.91
64544;BME280;50936;51.660;5.616;2024-03-08T02:54:18;101268.06;;;5.81;66.73
64544;BME280;50936;51.660;5.616;2024-03-08T02:57:06;101269.03;;;5.79;66.93
64544;BME280;50936;51.660;5.616;2024-03-08T02:59:54;101263.78;;;5.76;67.05
64544;BME280;50936;51.660;5.616;2024-03-08T03:02:42;101258.56;;;5.73;67.21
64544;BME280;50936;51.660;5.616;2024-03-08T03:05:30;101267.53;;;5.72;67.13
64544;BME280;50936;51.660;5.616;2024-03-08T03:08:17;101249.13;;;5.65;67.06
64544;BME280;50936;51.660;5.616;2024-03-08T03:11:05;101244.63;;;5.65;67.26
64544;BME280;50936;51.660;5.616;2024-03-08T03:13:54;101248.25;;;5.64;67.26
64544;BME280;50936;51.660;5.616;2024-03-08T03:16:42;101250.09;;;5.62;67.16
64544;BME280;50936;51.660;5.616;2024-03-08T03:19:31;101232.53;;;5.55;67.07
64544;BME280;50936;51.660;5.616;2024-03-08T03:22:19;101242.31;;;5.56;67.29
64544;BME280;50936;51.660;5.616;2024-03-08T03:25:09;101246.88;;;5.54;67.10
64544;BME280;50936;51.660;5.616;2024-03-08T03:27:57;101243.41;;;5.52;67.38
64544;BME280;50936;51.660;5.616;2024-03-08T03:30:45;101237.25;;;5.50;67.48
64544;BME280;50936;51.660;5.616;2024-03-08T03:33:33;101236.50;;;5.46;67.54
64544;BME280;50936;51.660;5.616;2024-03-08T03:36:21;101239.25;;;5.45;67.66
64544;BME280;50936;51.660;5.616;2024-03-08T03:39:09;101239.28;;;5.43;67.48
64544;BME280;50936;51.660;5.616;2024-03-08T03:42:03;101234.94;;;5.40;67.58
64544;BME280;50936;51.660;5.616;2024-03-08T03:44:51;101229.72;;;5.37;67.93
64544;BME280;50936;51.660;5.616;2024-03-08T03:47:39;101222.59;;;5.36;67.93
64544;BME280;50936;51.660;5.616;2024-03-08T03:50:26;101226.22;;;5.35;67.94
64544;BME280;50936;51.660;5.616;2024-03-08T03:53:13;101217.63;;;5.27;67.81
64544;BME280;50936;51.660;5.616;2024-03-08T03:56:01;101222.84;;;5.30;67.92
64544;BME280;50936;51.660;5.616;2024-03-08T03:58:48;101217.63;;;5.27;67.72
64544;BME280;50936;51.660;5.616;2024-03-08T04:01:36;101222.06;;;5.28;67.99
64544;BME280;50936;51.660;5.616;2024-03-08T04:04:29;101213.16;;;5.28;68.09
64544;BME280;50936;51.660;5.616;2024-03-08T04:07:16;101207.06;;;5.24;68.06
64544;BME280;50936;51.660;5.616;2024-03-08T04:10:05;101204.63;;;5.18;67.83
64544;BME280;50936;51.660;5.616;2024-03-08T04:12:53;101207.16;;;5.21;68.04
64544;BME280;50936;51.660;5.616;2024-03-08T04:15:41;101203.69;;;5.19;67.98
64544;BME280;50936;51.660;5.616;2024-03-08T04:18:35;101207.28;;;5.18;67.70
64544;BME280;50936;51.660;5.616;2024-03-08T04:21:24;101207.44;;;5.15;67.92
64544;BME280;50936;51.660;5.616;2024-03-08T04:24:12;101200.59;;;5.08;67.83
64544;BME280;50936;51.660;5.616;2024-03-08T04:26:59;101205.78;;;5.11;68.01
64544;BME280;50936;51.660;5.616;2024-03-08T04:29:47;101198.72;;;5.10;67.72
64544;BME280;50936;51.660;5.616;2024-03-08T04:32:34;101197.84;;;5.09;67.81
64544;BME280;50936;51.660;5.616;2024-03-08T04:35:22;101190.91;;;5.04;68.09
64544;BME280;50936;51.660;5.616;2024-03-08T04:38:09;101198.84;;;5.07;68.07
64544;BME280;50936;51.660;5.616;2024-03-08T04:40:57;101192.66;;;5.05;67.55
64544;BME280;50936;51.660;5.616;2024-03-08T04:43:45;101193.75;;;5.00;67.70
64544;BME280;50936;51.660;5.616;2024-03-08T04:46:32;101198.03;;;5.05;67.82
64544;BME280;50936;51.660;5.616;2024-03-08T04:49:20;101175.13;;;4.97;67.77
64544;BME280;50936;51.660;5.616;2024-03-08T04:52:08;101188.31;;;5.02;67.84
64544;BME280;50936;51.660;5.616;2024-03-08T04:54:56;101167.19;;;4.94;67.88
64544;BME280;50936;51.660;5.616;2024-03-08T04:57:43;101172.69;;;4.91;67.88
64544;BME280;50936;51.660;5.616;2024-03-08T05:00:33;101177.78;;;4.97;67.86
64544;BME280;50936;51.660;5.616;2024-03-08T05:03:20;101171.56;;;4.97;67.88
64544;BME280;50936;51.660;5.616;2024-03-08T05:06:08;101164.63;;;4.93;68.18
64544;BME280;50936;51.660;5.616;2024-03-08T05:08:56;101166.34;;;4.94;67.95
64544;BME280;50936;51.660;5.616;2024-03-08T05:11:43;101157.69;;;4.87;68.15
64544;BME280;50936;51.660;5.616;2024-03-08T05:14:31;101162.09;;;4.88;68.12
64544;BME280;50936;51.660;5.616;2024-03-08T05:17:19;101159.69;;;4.82;68.13
64544;BME280;50936;51.660;5.616;2024-03-08T05:20:06;101167.56;;;4.85;68.17
64544;BME280;50936;51.660;5.616;2024-03-08T05:22:59;101162.22;;;4.85;68.27
64544;BME280;50936;51.660;5.616;2024-03-08T05:25:47;101160.50;;;4.84;68.07
64544;BME280;50936;51.660;5.616;2024-03-08T05:28:34;101164.09;;;4.83;68.45
64544;BME280;50936;51.660;5.616;2024-03-08T05:31:22;101153.38;;;4.83;68.43
64544;BME280;50936;51.660;5.616;2024-03-08T05:34:09;101153.66;;;4.77;67.98
64544;BME280;50936;51.660;5.616;2024-03-08T05:36:57;101157.03;;;4.82;68.12
64544;BME280;50936;51.660;5.616;2024-03-08T05:39:45;101158.75;;;4.83;68.44
64544;BME280;50936;51.660;5.616;2024-03-08T05:42:33;101148.19;;;4.80;68.44
64544;BME280;50936;51.660;5.616;2024-03-08T05:45:20;101152.63;;;4.79;68.45
64544;BME280;50936;51.660;5.616;2024-03-08T05:48:07;101146.44;;;4.79;68.24
64544;BME280;50936;51.660;5.616;2024-03-08T05:50:55;101141.94;;;4.79;68.45
64544;BME280;50936;51.660;5.616;2024-03-08T05:53:43;101144.66;;;4.78;68.37
64544;BME280;50936;51.660;5.616;2024-03-08T05:56:31;101140.25;;;4.77;68.33
64544;BME280;50936;51.660;5.616;2024-03-08T05:59:19;101144.81;;;4.75;68.41
64544;BME280;50936;51.660;5.616;2024-03-08T06:02:06;101133.16;;;4.76;68.49
64544;BME280;50936;51.660;5.616;2024-03-08T06:04:54;101137.59;;;4.77;68.33
64544;BME280;50936;51.660;5.616;2024-03-08T06:07:41;101137.59;;;4.77;68.50
64544;BME280;50936;51.660;5.616;2024-03-08T06:10:29;101134.97;;;4.75;68.46
64544;BME280;50936;51.660;5.616;2024-03-08T06:13:16;101132.34;;;4.74;68.63
64544;BME280;50936;51.660;5.616;2024-03-08T06:16:04;101133.16;;;4.76;68.62
64544;BME280;50936;51.660;5.616;2024-03-08T06:18:51;101125.13;;;4.76;68.58
64544;BME280;50936;51.660;5.616;2024-03-08T06:21:39;101132.25;;;4.77;68.78
64544;BME280;50936;51.660;5.616;2024-03-08T06:24:26;101131.38;;;4.76;68.93
64544;BME280;50936;51.660;5.616;2024-03-08T06:27:13;101125.13;;;4.76;68.71
64544;BME280;50936;51.660;5.616;2024-03-08T06:30:01;101130.72;;;4.92;68.68
64544;BME280;50936;51.660;5.616;2024-03-08T06:32:51;101126.00;;;4.98;68.40
64544;BME280;50936;51.660;5.616;2024-03-08T06:35:39;101118.25;;;5.13;68.47
64544;BME280;50936;51.660;5.616;2024-03-08T06:38:26;101103.81;;;5.17;67.84
64544;BME280;50936;51.660;5.616;2024-03-08T06:41:14;101113.97;;;5.29;67.67
64544;BME280;50936;51.660;5.616;2024-03-08T06:44:04;101107.69;;;5.30;67.58
64544;BME280;50936;51.660;5.616;2024-03-08T06:46:52;101107.16;;;5.43;67.28
64544;BME280;50936;51.660;5.616;2024-03-08T06:49:40;101103.06;;;5.54;66.90
64544;BME280;50936;51.660;5.616;2024-03-08T06:52:28;101100.19;;;5.59;66.58
64544;BME280;50936;51.660;5.616;2024-03-08T06:55:15;101097.03;;;5.70;66.17
64544;BME280;50936;51.660;5.616;2024-03-08T06:58:04;101104.56;;;5.81;65.94
64544;BME280;50936;51.660;5.616;2024-03-08T07:00:53;101099.75;;;5.89;65.63
64544;BME280;50936;51.660;5.616;2024-03-08T07:03:45;101103.78;;;5.99;65.59
64544;BME280;50936;51.660;5.616;2024-03-08T07:06:32;101091.00;;;6.04;65.07
64544;BME280;50936;51.660;5.616;2024-03-08T07:09:24;101086.97;;;6.14;64.99
64544;BME280;50936;51.660;5.616;2024-03-08T07:12:11;101094.38;;;6.28;64.31
64544;BME280;50936;51.660;5.616;2024-03-08T07:15:00;101105.75;;;6.52;63.86
64544;BME280;50936;51.660;5.616;2024-03-08T07:17:47;101092.41;;;6.68;63.65
64544;BME280;50936;51.660;5.616;2024-03-08T07:20:35;101088.84;;;6.87;62.77
64544;BME280;50936;51.660;5.616;2024-03-08T07:23:24;101094.78;;;7.11;62.34
64544;BME280;50936;51.660;5.616;2024-03-08T07:26:30;101092.16;;;7.44;61.75
64544;BME280;50936;51.660;5.616;2024-03-08T07:29:17;101084.47;;;7.71;59.70
64544;BME280;50936;51.660;5.616;2024-03-08T07:32:07;101086.78;;;7.95;58.80
64544;BME280;50936;51.660;5.616;2024-03-08T07:35:08;101093.84;;;8.14;58.67
64544;BME280;50936;51.660;5.616;2024-03-08T07:37:55;101077.78;;;8.28;58.11
64544;BME280;50936;51.660;5.616;2024-03-08T07:40:42;101074.28;;;8.26;57.55
64544;BME280;50936;51.660;5.616;2024-03-08T07:43:33;101075.59;;;8.03;57.47
64544;BME280;50936;51.660;5.616;2024-03-08T07:46:20;101077.22;;;7.89;57.60
64544;BME280;50936;51.660;5.616;2024-03-08T07:49:07;101082.00;;;7.67;57.86
64544;BME280;50936;51.660;5.616;2024-03-08T07:51:58;101074.69;;;7.53;58.41
64544;BME280;50936;51.660;5.616;2024-03-08T07:54:46;101065.69;;;7.37;58.94
64544;BME280;50936;51.660;5.616;2024-03-08T07:57:33;101066.25;;;7.26;59.71
64544;BME280;50936;51.660;5.616;2024-03-08T08:00:21;101062.06;;;7.20;59.84
64544;BME280;50936;51.660;5.616;2024-03-08T08:03:08;101064.91;;;7.17;60.30
64544;BME280;50936;51.660;5.616;2024-03-08T08:05:56;101053.53;;;7.12;60.51
64544;BME280;50936;51.660;5.616;2024-03-08T08:08:43;101056.28;;;7.10;61.07
64544;BME280;50936;51.660;5.616;2024-03-08T08:11:30;101046.44;;;7.11;60.83
64544;BME280;50936;51.660;5.616;2024-03-08T08:14:19;101039.47;;;7.07;61.12
64544;BME280;50936;51.660;5.616;2024-03-08T08:17:08;101032.03;;;7.12;61.34
64544;BME280;50936;51.660;5.616;2024-03-08T08:19:55;101042.50;;;7.18;61.18
64544;BME280;50936;51.660;5.616;2024-03-08T08:22:43;101037.81;;;7.22;61.49
64544;BME280;50936;51.660;5.616;2024-03-08T08:25:30;101035.84;;;7.25;61.28
64544;BME280;50936;51.660;5.616;2024-03-08T08:28:17;101031.25;;;7.27;61.61
64544;BME280;50936;51.660;5.616;2024-03-08T08:31:05;101028.16;;;7.35;61.50
64544;BME280;50936;51.660;5.616;2024-03-08T08:33:53;101019.13;;;7.36;61.16
64544;BME280;50936;51.660;5.616;2024-03-08T08:36:45;101026.81;;;7.44;61.13
64544;BME280;50936;51.660;5.616;2024-03-08T08:39:32;101013.97;;;7.49;60.85
64544;BME280;50936;51.660;5.616;2024-03-08T08:42:19;101019.03;;;7.55;60.74
64544;BME280;50936;51.660;5.616;2024-03-08T08:45:07;101012.38;;;7.62;60.52
64544;BME280;50936;51.660;5.616;2024-03-08T08:48:03;101009.69;;;7.62;60.30
64544;BME280;50936;51.660;5.616;2024-03-08T08:50:52;101017.31;;;7.70;59.79
64544;BME280;50936;51.660;5.616;2024-03-08T08:53:40;101007.28;;;7.74;60.16
64544;BME280;50936;51.660;5.616;2024-03-08T08:56:29;101014.47;;;7.89;60.70
64544;BME280;50936;51.660;5.616;2024-03-08T08:59:17;101006.78;;;7.99;59.69
64544;BME280;50936;51.660;5.616;2024-03-08T09:02:09;101006.34;;;8.06;59.27
64544;BME280;50936;51.660;5.616;2024-03-08T09:05:01;100992.91;;;8.06;59.37
64544;BME280;50936;51.660;5.616;2024-03-08T09:07:50;100997.59;;;8.19;59.31
64544;BME280;50936;51.660;5.616;2024-03-08T09:10:37;100988.53;;;8.20;58.92
64544;BME280;50936;51.660;5.616;2024-03-08T09:13:26;100987.84;;;8.32;59.12
64544;BME280;50936;51.660;5.616;2024-03-08T09:16:19;100984.78;;;8.38;58.56
64544;BME280;50936;51.660;5.616;2024-03-08T09:19:06;100979.78;;;8.48;59.26
64544;BME280;50936;51.660;5.616;2024-03-08T09:21:53;100965.97;;;8.54;58.76
64544;BME280;50936;51.660;5.616;2024-03-08T09:24:41;100957.06;;;8.68;58.78
64544;BME280;50936;51.660;5.616;2024-03-08T09:27:30;100963.63;;;8.78;57.88
64544;BME280;50936;51.660;5.616;2024-03-08T09:30:17;100965.69;;;8.89;58.31
64544;BME280;50936;51.660;5.616;2024-03-08T09:33:05;100951.81;;;8.95;57.35
64544;BME280;50936;51.660;5.616;2024-03-08T09:35:53;100949.81;;;8.99;57.24
64544;BME280;50936;51.660;5.616;2024-03-08T09:38:41;100953.09;;;9.04;56.84
64544;BME280;50936;51.660;5.616;2024-03-08T09:41:30;100935.22;;;9.17;57.22
64544;BME280;50936;51.660;5.616;2024-03-08T09:44:17;100931.94;;;9.27;55.92
64544;BME280;50936;51.660;5.616;2024-03-08T09:47:06;100927.91;;;9.34;56.06
64544;BME280;50936;51.660;5.616;2024-03-08T09:49:56;100920.22;;;9.42;55.11
64544;BME280;50936;51.660;5.616;2024-03-08T09:52:46;100917.88;;;9.50;55.09
64544;BME280;50936;51.660;5.616;2024-03-08T09:55:37;100908.25;;;9.60;55.49
64544;BME280;50936;51.660;5.616;2024-03-08T09:58:28;100912.19;;;9.69;55.15
64544;BME280;50936;51.660;5.616;2024-03-08T10:01:21;100893.66;;;9.77;54.52
64544;BME280;50936;51.660;5.616;2024-03-08T10:04:09;100895.84;;;9.85;54.35
64544;BME280;50936;51.660;5.616;2024-03-08T10:06:58;100894.19;;;9.97;54.34
64544;BME280;50936;51.660;5.616;2024-03-08T10:09:46;100895.72;;;10.01;54.03
64544;BME280;50936;51.660;5.616;2024-03-08T10:12:38;100880.19;;;10.05;53.91
64544;BME280;50936;51.660;5.616;2024-03-08T10:15:29;100868.34;;;10.20;53.86
64544;BME280;50936;51.660;5.616;2024-03-08T10:18:16;100869.47;;;10.30;53.55
64544;BME280;50936;51.660;5.616;2024-03-08T10:21:06;100866.94;;;10.54;53.42
64544;BME280;50936;51.660;5.616;2024-03-08T10:23:55;100858.31;;;10.88;52.62
64544;BME280;50936;51.660;5.616;2024-03-08T10:26:43;100860.78;;;11.29;51.22
64544;BME280;50936;51.660;5.616;2024-03-08T10:29:32;100849.06;;;11.79;50.28
64544;BME280;50936;51.660;5.616;2024-03-08T10:32:19;100844.53;;;12.27;49.67
64544;BME280;50936;51.660;5.616;2024-03-08T10:35:08;100853.03;;;12.81;47.69
64544;BME280;50936;51.660;5.616;2024-03-08T10:37:56;100835.94;;;13.14;46.23
64544;BME280;50936;51.660;5.616;2024-03-08T10:41:01;100830.13;;;13.30;45.07
64544;BME280;50936;51.660;5.616;2024-03-08T10:47:17;100834.47;;;13.44;44.87
64544;BME280;50936;51.660;5.616;2024-03-08T10:50:20;100825.47;;;13.43;43.77
64544;BME280;50936;51.660;5.616;2024-03-08T10:53:10;100819.78;;;13.58;44.05
64544;BME280;50936;51.660;5.616;2024-03-08T10:55:58;100816.16;;;13.69;42.78
64544;BME280;50936;51.660;5.616;2024-03-08T10:58:46;100796.59;;;13.86;42.84
64544;BME280;50936;51.660;5.616;2024-03-08T11:01:35;100801.09;;;14.08;42.41
64544;BME280;50936;51.660;5.616;2024-03-08T11:04:23;100795.34;;;14.22;41.94
64544;BME280;50936;51.660;5.616;2024-03-08T11:07:12;100790.13;;;14.31;41.54
64544;BME280;50936;51.660;5.616;2024-03-08T11:10:04;100792.78;;;14.42;41.79
64544;BME280;50936;51.660;5.616;2024-03-08T11:22:03;100766.88;;;15.30;39.90
64544;BME280;50936;51.660;5.616;2024-03-08T11:24:51;100743.69;;;15.36;38.85
64544;BME280;50936;51.660;5.616;2024-03-08T11:27:38;100754.63;;;15.65;39.62
64544;BME280;50936;51.660;5.616;2024-03-08T11:30:26;100754.66;;;16.14;39.07
64544;BME280;50936;51.660;5.616;2024-03-08T11:33:15;100742.56;;;16.36;38.82
64544;BME280;50936;51.660;5.616;2024-03-08T11:36:14;100737.41;;;16.33;37.67
64544;BME280;50936;51.660;5.616;2024-03-08T11:39:09;100723.59;;;16.44;37.09
64544;BME280;50936;51.660;5.616;2024-03-08T11:42:01;100713.78;;;16.71;37.35
64544;BME280;50936;51.660;5.616;2024-03-08T11:44:50;100726.06;;;16.95;37.16
64544;BME280;50936;51.660;5.616;2024-03-08T11:47:38;100730.81;;;17.20;37.40
64544;BME280;50936;51.660;5.616;2024-03-08T11:50:26;100725.81;;;17.34;36.31
64544;BME280;50936;51.660;5.616;2024-03-08T11:53:14;100711.66;;;17.48;36.24
64544;BME280;50936;51.660;5.616;2024-03-08T11:56:09;100712.13;;;17.61;35.34
64544;BME280;50936;51.660;5.616;2024-03-08T11:58:58;100701.84;;;17.55;34.11
64544;BME280;50936;51.660;5.616;2024-03-08T12:02:07;100705.56;;;17.54;34.33
64544;BME280;50936;51.660;5.616;2024-03-08T12:04:59;100695.81;;;17.51;34.98
64544;BME280;50936;51.660;5.616;2024-03-08T12:07:59;100691.75;;;17.56;34.33
64544;BME280;50936;51.660;5.616;2024-03-08T12:10:47;100696.50;;;17.54;34.41
64544;BME280;50936;51.660;5.616;2024-03-08T12:13:34;100687.69;;;17.60;34.14
64544;BME280;50936;51.660;5.616;2024-03-08T12:16:23;100691.84;;;17.46;33.72
64544;BME280;50936;51.660;5.616;2024-03-08T12:19:11;100686.69;;;17.43;34.53
64544;BME280;50936;51.660;5.616;2024-03-08T12:22:07;100680.28;;;17.52;34.12
64544;BME280;50936;51.660;5.616;2024-03-08T12:25:04;100681.28;;;17.69;33.97
64544;BME280;50936;51.660;5.616;2024-03-08T12:28:07;100678.13;;;17.92;33.60
64544;BME280;50936;51.660;5.616;2024-03-08T12:30:58;100669.94;;;18.18;33.02
64544;BME280;50936;51.660;5.616;2024-03-08T12:33:50;100681.59;;;18.54;33.54
64544;BME280;50936;51.660;5.616;2024-03-08T12:36:47;100667.78;;;18.90;32.63
64544;BME280;50936;51.660;5.616;2024-03-08T12:39:37;100656.03;;;18.98;32.07
64544;BME280;50936;51.660;5.616;2024-03-08T12:42:24;100653.13;;;19.16;31.84
64544;BME280;50936;51.660;5.616;2024-03-08T12:45:13;100656.09;;;19.31;31.80
64544;BME280;50936;51.660;5.616;2024-03-08T12:48:01;100657.63;;;19.41;31.63
64544;BME280;50936;51.660;5.616;2024-03-08T12:50:51;100652.53;;;19.55;31.37
64544;BME280;50936;51.660;5.616;2024-03-08T12:53:40;100633.19;;;19.56;31.04
64544;BME280;50936;51.660;5.616;2024-03-08T12:56:32;100634.91;;;19.49;30.87
64544;BME280;50936;51.660;5.616;2024-03-08T12:59:20;100639.34;;;19.50;31.26
64544;BME280;50936;51.660;5.616;2024-03-08T13:02:09;100625.31;;;19.53;31.11
64544;BME280;50936;51.660;5.616;2024-03-08T13:04:58;100600.66;;;19.53;30.88
64544;BME280;50936;51.660;5.616;2024-03-08T13:07:46;100617.78;;;19.64;31.20
64544;BME280;50936;51.660;5.616;2024-03-08T13:10:34;100615.03;;;19.72;30.97
64544;BME280;50936;51.660;5.616;2024-03-08T13:13:21;100615.75;;;19.66;30.96
64544;BME280;50936;51.660;5.616;2024-03-08T13:16:09;100608.88;;;19.78;31.46
64544;BME280;50936;51.660;5.616;2024-03-08T13:18:59;100605.81;;;19.89;30.76
64544;BME280;50936;51.660;5.616;2024-03-08T13:21:46;100606.13;;;20.03;30.48
64544;BME280;50936;51.660;5.616;2024-03-08T13:24:36;100585.00;;;20.19;30.13
64544;BME280;50936;51.660;5.616;2024-03-08T13:27:23;100585.63;;;20.46;30.13
64544;BME280;50936;51.660;5.616;2024-03-08T13:30:12;100582.09;;;20.69;29.99
64544;BME280;50936;51.660;5.616;2024-03-08T13:33:01;100583.44;;;21.04;30.20
64544;BME280;50936;51.660;5.616;2024-03-08T13:35:52;100584.97;;;21.30;29.19
64544;BME280;50936;51.660;5.616;2024-03-08T13:38:41;100581.13;;;21.39;28.39
64544;BME280;50936;51.660;5.616;2024-03-08T13:41:32;100573.94;;;21.38;28.51
64544;BME280;50936;51.660;5.616;2024-03-08T13:44:20;100574.06;;;21.45;28.76
64544;BME280;50936;51.660;5.616;2024-03-08T13:47:07;100562.47;;;21.58;29.16
64544;BME280;50936;51.660;5.616;2024-03-08T13:49:54;100572.81;;;21.70;28.21
64544;BME280;50936;51.660;5.616;2024-03-08T13:52:42;100568.19;;;21.71;28.45
64544;BME280;50936;51.660;5.616;2024-03-08T13:55:31;100555.63;;;21.91;28.78
64544;BME280;50936;51.660;5.616;2024-03-08T13:58:18;100550.03;;;22.00;27.96
64544;BME280;50936;51.660;5.616;2024-03-08T14:01:07;100551.25;;;21.97;27.80
64544;BME280;50936;51.660;5.616;2024-03-08T14:03:59;100536.38;;;21.91;27.43
64544;BME280;50936;51.660;5.616;2024-03-08T14:06:46;100538.50;;;21.66;26.95
64544;BME280;50936;51.660;5.616;2024-03-08T14:09:37;100533.28;;;21.57;28.15
64544;BME280;50936;51.660;5.616;2024-03-08T14:12:26;100523.66;;;21.38;27.69
64544;BME280;50936;51.660;5.616;2024-03-08T14:15:16;100514.97;;;21.26;27.77
64544;BME280;50936;51.660;5.616;2024-03-08T14:18:04;100506.34;;;21.14;28.11
64544;BME280;50936;51.660;5.616;2024-03-08T14:20:54;100509.13;;;21.06;28.17
64544;BME280;50936;51.660;5.616;2024-03-08T14:23:41;100497.66;;;21.02;28.17
64544;BME280;50936;51.660;5.616;2024-03-08T14:26:29;100502.44;;;21.08;28.43
64544;BME280;50936;51.660;5.616;2024-03-08T14:29:17;100489.25;;;21.27;28.61
64544;BME280;50936;51.660;5.616;2024-03-08T14:32:07;100492.63;;;21.52;28.61
64544;BME280;50936;51.660;5.616;2024-03-08T14:34:57;100486.03;;;21.76;28.45
64544;BME280;50936;51.660;5.616;2024-03-08T14:37:45;100482.81;;;22.02;28.42
64544;BME280;50936;51.660;5.616;2024-03-08T14:40:33;100474.91;;;22.14;27.47
64544;BME280;50936;51.660;5.616;2024-03-08T14:43:20;100467.72;;;22.13;28.03
64544;BME280;50936;51.660;5.616;2024-03-08T14:46:08;100473.06;;;22.29;27.55
64544;BME280;50936;51.660;5.616;2024-03-08T14:48:55;100455.66;;;22.29;27.23
64544;BME280;50936;51.660;5.616;2024-03-08T14:51:45;100451.97;;;22.22;27.24
64544;BME280;50936;51.660;5.616;2024-03-08T14:54:33;100455.88;;;21.98;26.74
64544;BME280;50936;51.660;5.616;2024-03-08T14:57:20;100451.44;;;21.67;27.18
64544;BME280;50936;51.660;5.616;2024-03-08T15:00:08;100445.88;;;21.37;27.46
64544;BME280;50936;51.660;5.616;2024-03-08T15:03:03;100448.94;;;21.19;27.97